createdAt,value
2019-05-12T00:01:12.483Z,5.63
2019-05-12T00:03:42.267Z,4.03
2019-05-12T00:06:12.069Z,7.13
2019-05-12T00:08:41.900Z,7.23
2019-05-12T00:11:11.694Z,8.67
2019-05-12T00:13:41.481Z,6.67
2019-05-12T00:16:11.255Z,5.40
2019-05-12T00:18:41.033Z,4.10
2019-05-12T00:21:10.810Z,5.60
2019-05-12T00:23:58.807Z,6.20
2019-05-12T00:26:28.654Z,6.13
2019-05-12T00:28:58.879Z,4.93
2019-05-12T00:31:28.765Z,4.37
2019-05-12T00:33:59.611Z,5.63
2019-05-12T00:36:29.440Z,7.37
2019-05-12T00:38:59.250Z,7.60
2019-05-12T00:41:29.046Z,4.80
2019-05-12T00:43:58.815Z,8.37
2019-05-12T00:46:28.602Z,7.97
2019-05-12T00:48:58.565Z,8.10
2019-05-12T00:51:28.993Z,10.37
2019-05-12T00:53:58.905Z,7.50
2019-05-12T00:56:28.764Z,5.27
2019-05-12T00:58:59.111Z,8.10
2019-05-12T01:01:28.905Z,6.10
2019-05-12T01:03:58.667Z,5.60
2019-05-12T01:06:28.468Z,9.77
2019-05-12T01:08:58.229Z,6.50
2019-05-12T01:11:28.643Z,6.23
2019-05-12T01:13:58.734Z,8.40
2019-05-12T01:16:29.022Z,9.80
2019-05-12T01:18:58.851Z,6.20
2019-05-12T01:21:28.845Z,5.80
2019-05-12T01:24:03.395Z,9.43
2019-05-12T01:26:30.167Z,6.50
2019-05-12T01:28:59.952Z,4.83
2019-05-12T01:31:31.367Z,7.27
2019-05-12T01:34:01.138Z,4.27
2019-05-12T01:36:30.909Z,5.43
2019-05-12T01:39:01.922Z,10.43
2019-05-12T01:41:33.314Z,4.80
2019-05-12T01:44:03.115Z,5.87
2019-05-12T01:46:32.887Z,6.27
2019-05-12T01:49:03.747Z,9.00
2019-05-12T01:51:33.511Z,8.17
2019-05-12T01:54:11.814Z,3.90
2019-05-12T01:56:34.767Z,3.10
2019-05-12T01:59:04.555Z,6.47
2019-05-12T02:01:34.340Z,9.40
2019-05-12T02:04:04.188Z,4.63
2019-05-12T02:06:33.971Z,5.07
2019-05-12T02:09:08.062Z,3.90
2019-05-12T02:11:38.150Z,8.10
2019-05-12T02:14:09.259Z,7.07
2019-05-12T02:16:40.391Z,5.60
2019-05-12T02:19:10.178Z,6.17
2019-05-12T02:21:39.973Z,5.77
2019-05-12T02:24:23.319Z,6.00
2019-05-12T02:26:41.243Z,8.00
2019-05-12T02:29:11.011Z,5.80
2019-05-12T02:31:40.843Z,6.50
2019-05-12T02:34:10.615Z,8.27
2019-05-12T02:36:40.410Z,4.77
2019-05-12T02:39:10.247Z,16.67
2019-05-12T02:41:40.021Z,9.97
2019-05-12T02:44:09.799Z,6.17
2019-05-12T02:46:39.568Z,8.53
2019-05-12T02:49:09.359Z,5.47
2019-05-12T02:51:39.271Z,8.90
2019-05-12T02:54:09.540Z,6.77
2019-05-12T02:56:40.349Z,8.00
2019-05-12T02:59:10.773Z,9.40
2019-05-12T03:01:45.176Z,7.50
2019-05-12T03:04:14.752Z,9.30
2019-05-12T03:06:45.289Z,9.70
2019-05-12T03:09:15.313Z,9.10
2019-05-12T03:11:45.900Z,5.73
2019-05-12T03:14:16.054Z,8.77
2019-05-12T03:16:46.002Z,7.60
2019-05-12T03:19:15.796Z,7.90
2019-05-12T03:21:45.575Z,6.10
2019-05-12T03:24:17.634Z,6.93
2019-05-12T03:26:46.837Z,9.00
2019-05-12T03:29:16.684Z,8.10
2019-05-12T03:31:48.585Z,9.87
2019-05-12T03:34:20.109Z,9.27
2019-05-12T03:36:51.794Z,6.23
2019-05-12T03:39:20.974Z,8.77
2019-05-12T03:41:50.754Z,7.20
2019-05-12T03:44:20.541Z,8.73
2019-05-12T03:46:50.307Z,9.10
2019-05-12T03:49:20.155Z,7.47
2019-05-12T03:51:49.933Z,6.17
2019-05-12T03:54:19.696Z,5.40
2019-05-12T03:56:49.485Z,5.77
2019-05-12T03:59:19.253Z,7.73
2019-05-12T04:01:49.054Z,13.27
2019-05-12T04:04:18.818Z,12.70
2019-05-12T04:06:48.604Z,6.90
2019-05-12T04:09:18.396Z,6.80
2019-05-12T04:11:48.185Z,14.57
2019-05-12T04:14:17.963Z,7.83
2019-05-12T04:16:47.731Z,7.43
2019-05-12T04:19:17.512Z,6.60
2019-05-12T04:21:47.291Z,9.13
2019-05-12T04:24:17.075Z,7.50
2019-05-12T04:26:47.913Z,9.93
2019-05-12T04:29:17.695Z,7.50
2019-05-12T04:31:47.464Z,8.50
2019-05-12T04:34:19.207Z,8.20
2019-05-12T04:36:48.713Z,8.13
2019-05-12T04:39:18.491Z,11.67
2019-05-12T04:41:48.269Z,9.37
2019-05-12T04:44:18.059Z,7.30
2019-05-12T04:46:47.827Z,7.43
2019-05-12T04:49:17.608Z,8.67
2019-05-12T04:51:47.403Z,6.90
2019-05-12T04:54:17.255Z,8.50
2019-05-12T04:56:47.105Z,12.30
2019-05-12T04:59:16.909Z,7.40
2019-05-12T05:01:46.678Z,10.50
2019-05-12T05:04:16.487Z,6.53
2019-05-12T05:06:46.285Z,10.87
2019-05-12T05:09:16.058Z,7.97
2019-05-12T05:11:45.875Z,6.83
2019-05-12T05:14:15.636Z,11.57
2019-05-12T05:16:46.392Z,8.50
2019-05-12T05:19:16.163Z,8.97
2019-05-12T05:21:45.952Z,8.13
2019-05-12T05:24:15.718Z,9.30
2019-05-12T05:26:45.508Z,8.77
2019-05-12T05:29:15.279Z,6.77
2019-05-12T05:31:45.073Z,9.43
2019-05-12T05:34:15.117Z,12.63
2019-05-12T05:36:46.095Z,8.87
2019-05-12T05:39:15.868Z,12.43
2019-05-12T05:41:50.987Z,5.87
2019-05-12T05:44:18.261Z,9.93
2019-05-12T05:46:50.188Z,10.43
2019-05-12T05:49:20.591Z,7.27
2019-05-12T05:51:57.202Z,9.97
2019-05-12T05:54:31.367Z,9.43
2019-05-12T05:56:59.783Z,9.97
2019-05-12T05:59:31.369Z,7.90
2019-05-12T06:01:58.198Z,9.63
2019-05-12T06:04:27.963Z,8.73
2019-05-12T06:06:57.743Z,10.53
2019-05-12T06:09:27.552Z,9.00
2019-05-12T06:11:59.079Z,9.53
2019-05-12T06:14:28.820Z,9.75
2019-05-12T06:16:58.659Z,8.88
2019-05-12T06:19:28.455Z,8.93
2019-05-12T06:21:58.227Z,9.55
2019-05-12T06:24:30.379Z,8.10
2019-05-12T06:27:00.812Z,10.60
2019-05-12T06:29:33.224Z,9.45
2019-05-12T06:32:06.285Z,8.53
2019-05-12T06:34:34.342Z,11.35
2019-05-12T06:37:12.020Z,9.50
2019-05-12T06:39:35.668Z,8.45
2019-05-12T06:42:12.296Z,10.08
2019-05-12T06:44:37.998Z,9.45
2019-05-12T06:47:08.434Z,9.93
2019-05-12T06:49:38.310Z,11.00
2019-05-12T06:52:08.313Z,9.08
2019-05-12T06:54:42.538Z,7.87
2019-05-12T06:57:20.852Z,8.60
2019-05-12T06:59:41.874Z,8.03
2019-05-12T07:02:13.838Z,10.95
2019-05-12T07:04:47.442Z,9.33
2019-05-12T07:07:16.198Z,7.85
2019-05-12T07:09:53.760Z,7.85
2019-05-12T07:12:17.697Z,6.97
2019-05-12T07:14:48.976Z,6.70
2019-05-12T07:17:26.385Z,7.70
2019-05-12T07:19:58.196Z,8.48
2019-05-12T07:22:31.777Z,9.05
2019-05-12T07:25:00.323Z,8.85
2019-05-12T07:27:36.766Z,8.50
2019-05-12T07:30:01.591Z,8.23
2019-05-12T07:32:34.247Z,10.53
2019-05-12T07:35:04.691Z,9.28
2019-05-12T07:37:35.394Z,9.58
2019-05-12T07:40:06.008Z,10.20
2019-05-12T07:42:39.627Z,8.00
2019-05-12T07:45:11.397Z,6.47
2019-05-12T07:47:40.211Z,9.40
2019-05-12T07:50:15.430Z,7.57
2019-05-12T07:52:44.035Z,6.40
2019-05-12T07:55:14.824Z,5.90
2019-05-12T07:57:53.010Z,5.57
2019-05-12T08:00:21.175Z,5.93
2019-05-12T08:02:48.114Z,10.17
2019-05-12T08:05:19.768Z,12.20
2019-05-12T08:07:50.522Z,7.40
2019-05-12T08:10:20.430Z,7.33
2019-05-12T08:12:55.818Z,5.97
2019-05-12T08:15:21.776Z,7.80
2019-05-12T08:17:57.711Z,4.53
2019-05-12T08:20:23.900Z,5.10
2019-05-12T08:22:54.212Z,4.43
2019-05-12T08:25:28.833Z,1.70
2019-05-12T08:28:11.009Z,2.83
2019-05-12T08:30:33.697Z,1.63
2019-05-12T08:33:09.219Z,3.67
2019-05-12T08:35:38.286Z,3.12
2019-05-12T08:38:06.856Z,2.17
2019-05-12T08:40:40.008Z,3.60
2019-05-12T08:43:10.506Z,4.67
2019-05-12T08:45:40.710Z,2.98
2019-05-12T08:48:16.957Z,4.53
2019-05-12T08:50:45.348Z,12.28
2019-05-12T08:53:20.339Z,5.70
2019-05-12T08:55:45.095Z,2.95
2019-05-12T08:58:29.633Z,5.10
2019-05-12T09:00:50.118Z,2.58
2019-05-12T09:03:20.537Z,3.10
2019-05-12T09:05:50.138Z,3.00
2019-05-12T09:08:20.718Z,2.00
2019-05-12T09:10:54.700Z,1.47
2019-05-12T09:13:23.446Z,2.20
2019-05-12T09:15:54.162Z,4.03
2019-05-12T09:18:33.589Z,2.65
2019-05-12T09:20:55.915Z,2.75
2019-05-12T09:23:26.723Z,2.58
2019-05-12T09:25:57.404Z,2.12
2019-05-12T09:28:27.630Z,2.00
2019-05-12T09:30:57.638Z,2.35
2019-05-12T09:33:31.685Z,2.83
2019-05-12T09:35:59.073Z,4.37
2019-05-12T09:38:28.900Z,3.85
2019-05-12T09:41:01.094Z,2.05
2019-05-12T09:43:30.335Z,2.17
2019-05-12T09:46:00.119Z,2.40
2019-05-12T09:48:29.930Z,3.58
2019-05-12T09:51:00.602Z,1.72
2019-05-12T09:53:31.297Z,1.75
2019-05-12T09:56:01.084Z,1.52
2019-05-12T09:58:30.918Z,5.87
2019-05-12T10:01:00.707Z,4.03
2019-05-12T10:03:38.395Z,4.92
2019-05-12T10:06:03.781Z,4.33
2019-05-12T10:08:35.659Z,2.80
2019-05-12T10:11:10.140Z,3.65
2019-05-12T10:13:36.843Z,2.95
2019-05-12T10:16:08.804Z,3.08
2019-05-12T10:18:45.426Z,1.50
2019-05-12T10:21:10.181Z,3.00
2019-05-12T10:23:43.495Z,3.65
2019-05-12T10:26:14.794Z,2.77
2019-05-12T10:28:51.793Z,4.97
2019-05-12T10:31:18.590Z,2.22
2019-05-12T10:33:49.010Z,3.08
2019-05-12T10:36:19.679Z,2.42
2019-05-12T10:38:49.482Z,2.22
2019-05-12T10:41:19.508Z,3.62
2019-05-12T10:43:55.987Z,2.25
2019-05-12T10:46:26.389Z,1.80
2019-05-12T10:48:53.912Z,2.35
2019-05-12T10:51:24.090Z,4.87
2019-05-12T10:53:58.257Z,2.87
2019-05-12T10:56:25.518Z,7.90
2019-05-12T10:58:55.329Z,2.67
2019-05-12T11:01:25.107Z,6.30
2019-05-12T11:03:54.894Z,2.43
2019-05-12T11:06:24.693Z,3.10
2019-05-12T11:08:54.498Z,3.27
2019-05-12T11:11:24.274Z,3.00
2019-05-12T11:13:54.052Z,4.90
2019-05-12T11:16:30.854Z,1.27
2019-05-12T11:18:55.354Z,3.27
2019-05-12T11:21:26.836Z,1.63
2019-05-12T11:23:57.341Z,2.63
2019-05-12T11:26:27.138Z,3.80
2019-05-12T11:28:56.946Z,3.20
2019-05-12T11:31:26.730Z,3.43
2019-05-12T11:33:56.508Z,3.23
2019-05-12T11:36:26.313Z,4.53
2019-05-12T11:38:56.132Z,4.23
2019-05-12T11:41:28.477Z,3.70
2019-05-12T11:43:57.408Z,3.60
2019-05-12T11:46:27.222Z,3.03
2019-05-12T11:48:57.013Z,2.43
2019-05-12T11:51:30.289Z,3.10
2019-05-12T11:53:58.298Z,2.90
2019-05-12T11:56:28.104Z,3.13
2019-05-12T11:58:57.892Z,5.30
2019-05-12T12:01:29.433Z,4.27
2019-05-12T12:03:59.214Z,4.70
2019-05-12T12:06:29.018Z,5.10
2019-05-12T12:08:58.787Z,3.20
2019-05-12T12:11:28.587Z,3.23
2019-05-12T12:14:00.362Z,4.23
2019-05-12T12:16:29.867Z,5.33
2019-05-12T12:19:02.733Z,1.37
2019-05-12T12:21:34.265Z,1.90
2019-05-12T12:24:03.912Z,4.17
2019-05-12T12:26:37.139Z,1.50
2019-05-12T12:29:05.668Z,3.47
2019-05-12T12:31:48.836Z,3.43
2019-05-12T12:34:23.975Z,3.03
2019-05-12T12:36:50.339Z,3.00
2019-05-12T12:39:20.132Z,2.37
2019-05-12T12:41:58.399Z,2.50
2019-05-12T12:44:21.411Z,2.83
2019-05-12T12:46:59.311Z,2.70
2019-05-12T12:49:23.360Z,3.13
2019-05-12T12:51:53.362Z,4.70
2019-05-12T12:54:23.163Z,2.20
2019-05-12T12:56:53.934Z,2.83
2019-05-12T12:59:24.139Z,4.33
2019-05-12T13:01:54.117Z,1.70
2019-05-12T13:04:24.858Z,2.30
2019-05-12T13:06:54.928Z,2.83
2019-05-12T13:09:24.852Z,4.87
2019-05-12T13:11:54.713Z,4.40
2019-05-12T13:14:28.520Z,2.57
2019-05-12T13:16:56.314Z,3.37
2019-05-12T13:19:26.180Z,2.70
2019-05-12T13:21:56.281Z,2.10
2019-05-12T13:24:26.139Z,3.03
2019-05-12T13:26:55.936Z,1.53
2019-05-12T13:29:34.260Z,2.43
2019-05-12T13:31:57.227Z,1.23
2019-05-12T13:34:28.779Z,3.53
2019-05-12T13:36:58.618Z,1.83
2019-05-12T13:39:28.404Z,1.70
2019-05-12T13:42:00.211Z,2.03
2019-05-12T13:44:30.389Z,1.37
2019-05-12T13:47:03.240Z,2.27
2019-05-12T13:49:38.430Z,1.33
2019-05-12T13:52:04.310Z,3.77
2019-05-12T13:54:34.154Z,3.27
2019-05-12T13:57:12.008Z,1.83
2019-05-12T13:59:35.474Z,2.50
2019-05-12T14:02:05.256Z,2.50
2019-05-12T14:04:35.059Z,1.43
2019-05-12T14:07:09.319Z,1.00
2019-05-12T14:09:36.398Z,2.93
2019-05-12T14:12:07.299Z,2.10
2019-05-12T14:14:37.096Z,1.73
2019-05-12T14:17:06.896Z,3.00
2019-05-12T14:19:37.324Z,2.60
2019-05-12T14:22:07.471Z,1.33
2019-05-12T14:24:42.203Z,1.10
2019-05-12T14:27:10.347Z,2.97
2019-05-12T14:29:40.163Z,1.47
2019-05-12T14:32:12.074Z,2.57
2019-05-12T14:34:43.348Z,3.60
2019-05-12T14:37:14.062Z,2.17
2019-05-12T14:39:46.141Z,1.77
2019-05-12T14:42:16.565Z,2.93
2019-05-12T14:44:49.664Z,3.73
2019-05-12T14:47:19.341Z,2.17
2019-05-12T14:49:49.332Z,0.77
2019-05-12T14:52:19.111Z,3.07
2019-05-12T14:54:49.980Z,1.03
2019-05-12T14:57:19.775Z,1.50
2019-05-12T14:59:49.569Z,0.80
2019-05-12T15:02:24.570Z,0.83
2019-05-12T15:04:50.866Z,1.85
2019-05-12T15:07:20.649Z,1.65
2019-05-12T15:09:54.002Z,2.97
2019-05-12T15:12:23.765Z,3.53
2019-05-12T15:14:54.333Z,1.70
2019-05-12T15:17:24.587Z,1.87
2019-05-12T15:19:54.729Z,1.57
2019-05-12T15:22:24.519Z,2.00
2019-05-12T15:24:58.849Z,1.10
2019-05-12T15:27:41.038Z,1.50
2019-05-12T15:29:59.612Z,5.83
2019-05-12T15:32:29.633Z,3.60
2019-05-12T15:34:59.578Z,1.03
2019-05-12T15:37:34.940Z,4.30
2019-05-12T15:40:01.062Z,1.87
2019-05-12T15:42:30.884Z,1.37
2019-05-12T15:45:00.729Z,6.83
2019-05-12T15:47:32.125Z,1.70
2019-05-12T15:50:03.978Z,1.53
2019-05-12T15:52:37.817Z,1.97
2019-05-12T15:55:08.071Z,0.90
2019-05-12T15:57:37.843Z,2.10
2019-05-12T16:00:08.423Z,1.67
2019-05-12T16:02:38.196Z,2.10
2019-05-12T16:05:08.432Z,1.60
2019-05-12T16:07:39.747Z,1.15
2019-05-12T16:10:10.786Z,3.35
2019-05-12T16:12:40.595Z,2.97
2019-05-12T16:15:16.971Z,2.73
2019-05-12T16:17:44.009Z,1.63
2019-05-12T16:20:14.580Z,5.10
2019-05-12T16:22:45.322Z,1.73
2019-05-12T16:25:20.617Z,1.70
2019-05-12T16:27:47.928Z,2.40
2019-05-12T16:30:20.336Z,2.13
2019-05-12T16:32:49.202Z,1.80
2019-05-12T16:35:26.585Z,3.53
2019-05-12T16:37:50.565Z,1.07
2019-05-12T16:40:20.456Z,3.30
2019-05-12T16:42:53.533Z,2.40
2019-05-12T16:45:23.498Z,3.10
2019-05-12T16:47:53.700Z,2.37
2019-05-12T16:50:27.382Z,1.85
2019-05-12T16:52:56.091Z,2.25
2019-05-12T16:55:25.894Z,1.00
2019-05-12T16:57:56.273Z,4.30
2019-05-12T17:00:26.866Z,3.10
2019-05-12T17:02:58.414Z,3.70
2019-05-12T17:05:28.213Z,7.78
2019-05-12T17:07:58.000Z,3.08
2019-05-12T17:10:27.801Z,2.42
2019-05-12T17:12:57.614Z,1.57
2019-05-12T17:15:27.405Z,1.97
2019-05-12T17:18:01.456Z,1.97
2019-05-12T17:20:28.683Z,2.80
2019-05-12T17:23:00.235Z,2.27
2019-05-12T17:25:29.962Z,4.20
2019-05-12T17:28:03.647Z,3.77
2019-05-12T17:30:31.254Z,2.13
2019-05-12T17:33:04.498Z,3.50
2019-05-12T17:35:34.854Z,2.60
2019-05-12T17:38:04.436Z,2.53
2019-05-12T17:40:34.396Z,1.73
2019-05-12T17:43:11.588Z,3.07
2019-05-12T17:45:37.375Z,2.60
2019-05-12T17:48:07.795Z,3.97
2019-05-12T17:50:40.600Z,2.37
2019-05-12T17:53:09.234Z,2.27
2019-05-12T17:55:42.652Z,1.97
2019-05-12T17:58:10.528Z,2.80
2019-05-12T18:00:41.249Z,1.97
2019-05-12T18:03:21.481Z,2.03
2019-05-12T18:05:48.074Z,2.63
2019-05-12T18:08:14.927Z,4.50
2019-05-12T18:10:47.954Z,2.30
2019-05-12T18:13:22.972Z,2.80
2019-05-12T18:15:48.613Z,1.40
2019-05-12T18:18:25.875Z,1.23
2019-05-12T18:20:49.891Z,2.83
2019-05-12T18:23:24.909Z,2.70
2019-05-12T18:25:53.546Z,2.00
2019-05-12T18:28:27.480Z,2.73
2019-05-12T18:30:54.166Z,4.27
2019-05-12T18:33:33.366Z,1.90
2019-05-12T18:35:55.473Z,4.40
2019-05-12T18:38:26.629Z,3.07
2019-05-12T18:40:56.771Z,2.13
2019-05-12T18:43:26.560Z,3.40
2019-05-12T18:46:04.879Z,2.17
2019-05-12T18:48:27.856Z,3.63
2019-05-12T18:51:04.957Z,2.93
2019-05-12T18:53:31.832Z,1.40
2019-05-12T18:56:00.661Z,4.50
2019-05-12T18:58:32.473Z,2.33
2019-05-12T19:01:03.468Z,3.77
2019-05-12T19:03:46.741Z,2.90
2019-05-12T19:06:05.148Z,1.10
2019-05-12T19:08:34.927Z,2.00
2019-05-12T19:11:18.919Z,2.63
2019-05-12T19:13:36.285Z,2.60
2019-05-12T19:16:07.439Z,2.30
2019-05-12T19:18:37.618Z,3.40
2019-05-12T19:21:10.159Z,3.63
2019-05-12T19:23:39.034Z,1.27
2019-05-12T19:26:08.847Z,2.10
2019-05-12T19:28:44.226Z,3.37
2019-05-12T19:31:10.331Z,3.07
2019-05-12T19:33:43.961Z,3.80
2019-05-12T19:36:13.634Z,5.83
2019-05-12T19:38:43.859Z,2.57
2019-05-12T19:41:14.108Z,4.10
2019-05-12T19:43:45.414Z,3.80
2019-05-12T19:46:15.485Z,4.20
2019-05-12T19:48:49.638Z,2.70
2019-05-12T19:51:24.467Z,3.73
2019-05-12T19:53:49.351Z,3.57
2019-05-12T19:56:19.185Z,5.10
2019-05-12T19:58:48.961Z,3.53
2019-05-12T20:01:26.010Z,3.77
2019-05-12T20:03:55.577Z,2.40
2019-05-12T20:06:24.138Z,3.17
2019-05-12T20:09:05.392Z,4.10
2019-05-12T20:11:29.332Z,2.93
2019-05-12T20:13:56.221Z,2.07
2019-05-12T20:16:30.289Z,2.83
2019-05-12T20:18:58.042Z,2.73
2019-05-12T20:21:28.919Z,2.70
2019-05-12T20:23:58.709Z,4.73
2019-05-12T20:26:33.201Z,2.20
2019-05-12T20:29:00.026Z,2.30
2019-05-12T20:31:29.805Z,3.23
2019-05-12T20:34:04.411Z,3.20
2019-05-12T20:36:31.064Z,2.77
2019-05-12T20:39:00.861Z,3.30
2019-05-12T20:41:30.810Z,2.57
2019-05-12T20:44:02.537Z,3.93
2019-05-12T20:46:34.025Z,2.77
2019-05-12T20:49:07.570Z,2.97
2019-05-12T20:51:35.431Z,3.07
2019-05-12T20:54:13.378Z,3.10
2019-05-12T20:56:36.868Z,8.20
2019-05-12T20:59:06.655Z,9.00
2019-05-12T21:01:36.456Z,3.90
2019-05-12T21:04:07.804Z,3.73
2019-05-12T21:06:43.111Z,3.50
2019-05-12T21:09:14.394Z,4.50
2019-05-12T21:11:44.393Z,4.70
2019-05-12T21:14:15.157Z,3.97
2019-05-12T21:16:45.097Z,3.20
2019-05-12T21:19:15.010Z,5.37
2019-05-12T21:21:44.808Z,4.00
2019-05-12T21:24:16.135Z,3.63
2019-05-12T21:26:45.939Z,2.67
2019-05-12T21:29:19.161Z,3.10
2019-05-12T21:31:47.221Z,2.93
2019-05-12T21:34:21.269Z,3.20
2019-05-12T21:36:48.488Z,5.87
2019-05-12T21:39:18.263Z,4.40
2019-05-12T21:41:52.116Z,3.27
2019-05-12T21:44:19.559Z,5.63
2019-05-12T21:46:58.773Z,2.93
2019-05-12T21:49:20.958Z,4.00
2019-05-12T21:51:59.091Z,3.57
2019-05-12T21:54:24.206Z,3.87
2019-05-12T21:56:54.324Z,3.40
2019-05-12T21:59:28.902Z,2.97
2019-05-12T22:01:55.960Z,3.90
2019-05-12T22:04:25.803Z,5.47
2019-05-12T22:06:57.236Z,4.80
2019-05-12T22:09:27.163Z,6.93
2019-05-12T22:11:56.969Z,4.27
2019-05-12T22:14:30.536Z,3.13
2019-05-12T22:17:00.960Z,5.00
2019-05-12T22:19:31.479Z,5.20
2019-05-12T22:22:04.221Z,3.90
2019-05-12T22:24:38.531Z,4.23
2019-05-12T22:27:05.374Z,3.53
2019-05-12T22:29:36.132Z,3.67
2019-05-12T22:32:05.938Z,7.03
2019-05-12T22:34:41.594Z,4.20
2019-05-12T22:37:07.212Z,5.87
2019-05-12T22:39:37.036Z,3.80
2019-05-12T22:42:11.671Z,5.70
2019-05-12T22:44:38.880Z,9.57
2019-05-12T22:47:12.736Z,3.83
2019-05-12T22:49:40.163Z,4.03
2019-05-12T22:52:10.011Z,2.40
2019-05-12T22:54:40.670Z,3.77
2019-05-12T22:57:13.118Z,6.50
2019-05-12T22:59:44.857Z,3.70
2019-05-12T23:02:18.062Z,11.50
2019-05-12T23:04:45.866Z,12.80
2019-05-12T23:07:19.066Z,4.10
2019-05-12T23:09:47.157Z,2.60
2019-05-12T23:12:19.985Z,6.27
2019-05-12T23:14:56.476Z,6.40
2019-05-12T23:17:20.884Z,3.10
2019-05-12T23:19:55.071Z,2.93
2019-05-12T23:22:23.599Z,3.13
2019-05-12T23:24:54.667Z,4.20
2019-05-12T23:27:29.915Z,5.93
2019-05-12T23:30:01.689Z,3.10
2019-05-12T23:32:28.734Z,4.83
2019-05-12T23:34:58.826Z,2.47
2019-05-12T23:37:30.241Z,4.80
2019-05-12T23:40:00.170Z,3.50
2019-05-12T23:42:30.033Z,2.93
2019-05-12T23:45:03.444Z,3.80
2019-05-12T23:47:34.307Z,3.63
2019-05-12T23:50:06.344Z,5.33
2019-05-12T23:52:36.148Z,4.30
2019-05-12T23:55:06.988Z,3.33
2019-05-12T23:57:36.778Z,8.87
